sensor_id;sensor_type;location;lat;lon;timestamp;temperature;humidity
34135;DHT22;20410;55.578;12.968;2022-12-18T00:00:45;0.80;1.00
34135;DHT22;20410;55.578;12.968;2022-12-18T00:03:13;0.80;1.00
34135;DHT22;20410;55.578;12.968;2022-12-18T00:05:54;0.80;1.00
34135;DHT22;20410;55.578;12.968;2022-12-18T00:08:20;0.80;1.00
34135;DHT22;20410;55.578;12.968;2022-12-18T00:10:46;0.80;1.00
34135;DHT22;20410;55.578;12.968;2022-12-18T00:13:12;0.80;1.00
34135;DHT22;20410;55.578;12.968;2022-12-18T00:15:38;0.80;1.00
34135;DHT22;20410;55.578;12.968;2022-12-18T00:18:04;0.80;1.00
34135;DHT22;20410;55.578;12.968;2022-12-18T00:20:30;0.80;1.00
34135;DHT22;20410;55.578;12.968;2022-12-18T00:22:56;0.80;1.00
34135;DHT22;20410;55.578;12.968;2022-12-18T00:25:22;0.80;1.00
34135;DHT22;20410;55.578;12.968;2022-12-18T00:27:48;0.70;1.00
34135;DHT22;20410;55.578;12.968;2022-12-18T00:30:14;0.80;1.00
34135;DHT22;20410;55.578;12.968;2022-12-18T00:32:39;0.80;1.00
34135;DHT22;20410;55.578;12.968;2022-12-18T00:35:06;0.80;1.00
34135;DHT22;20410;55.578;12.968;2022-12-18T00:37:33;0.80;1.00
34135;DHT22;20410;55.578;12.968;2022-12-18T00:39:59;0.80;1.00
34135;DHT22;20410;55.578;12.968;2022-12-18T00:42:25;0.70;1.00
34135;DHT22;20410;55.578;12.968;2022-12-18T00:45:09;0.70;1.00
34135;DHT22;20410;55.578;12.968;2022-12-18T00:47:35;0.70;1.00
34135;DHT22;20410;55.578;12.968;2022-12-18T00:50:00;0.70;1.00
34135;DHT22;20410;55.578;12.968;2022-12-18T00:52:26;0.70;1.00
34135;DHT22;20410;55.578;12.968;2022-12-18T00:54:52;0.70;1.00
34135;DHT22;20410;55.578;12.968;2022-12-18T00:57:17;0.70;1.00
34135;DHT22;20410;55.578;12.968;2022-12-18T00:59:43;0.70;1.00
34135;DHT22;20410;55.578;12.968;2022-12-18T01:02:08;0.70;1.00
34135;DHT22;20410;55.578;12.968;2022-12-18T01:04:34;0.70;1.00
34135;DHT22;20410;55.578;12.968;2022-12-18T01:07:00;0.70;1.00
34135;DHT22;20410;55.578;12.968;2022-12-18T01:09:26;0.70;1.00
34135;DHT22;20410;55.578;12.968;2022-12-18T01:11:51;0.70;1.00
34135;DHT22;20410;55.578;12.968;2022-12-18T01:14:17;0.70;1.00
34135;DHT22;20410;55.578;12.968;2022-12-18T01:16:43;0.70;1.00
34135;DHT22;20410;55.578;12.968;2022-12-18T01:19:09;0.60;1.00
34135;DHT22;20410;55.578;12.968;2022-12-18T01:21:34;0.70;1.00
34135;DHT22;20410;55.578;12.968;2022-12-18T01:24:00;0.60;1.00
34135;DHT22;20410;55.578;12.968;2022-12-18T01:26:26;0.60;1.00
34135;DHT22;20410;55.578;12.968;2022-12-18T01:28:55;0.60;1.00
34135;DHT22;20410;55.578;12.968;2022-12-18T01:31:26;0.60;1.00
34135;DHT22;20410;55.578;12.968;2022-12-18T01:33:53;0.60;1.00
34135;DHT22;20410;55.578;12.968;2022-12-18T01:36:24;0.60;1.00
34135;DHT22;20410;55.578;12.968;2022-12-18T01:38:51;0.60;1.00
34135;DHT22;20410;55.578;12.968;2022-12-18T01:41:22;0.60;1.00
34135;DHT22;20410;55.578;12.968;2022-12-18T01:43:52;0.60;1.00
34135;DHT22;20410;55.578;12.968;2022-12-18T01:46:20;0.60;1.00
34135;DHT22;20410;55.578;12.968;2022-12-18T01:48:52;0.60;1.00
34135;DHT22;20410;55.578;12.968;2022-12-18T01:51:19;0.60;1.00
34135;DHT22;20410;55.578;12.968;2022-12-18T01:53:47;0.60;1.00
34135;DHT22;20410;55.578;12.968;2022-12-18T01:56:16;0.50;1.00
34135;DHT22;20410;55.578;12.968;2022-12-18T01:58:56;0.50;1.00
34135;DHT22;20410;55.578;12.968;2022-12-18T02:01:24;0.50;1.00
34135;DHT22;20410;55.578;12.968;2022-12-18T02:03:50;0.50;1.00
34135;DHT22;20410;55.578;12.968;2022-12-18T02:06:30;0.50;1.00
34135;DHT22;20410;55.578;12.968;2022-12-18T02:12:09;0.60;1.00
34135;DHT22;20410;55.578;12.968;2022-12-18T02:14:45;0.60;1.00
34135;DHT22;20410;55.578;12.968;2022-12-18T02:17:19;0.50;1.00
34135;DHT22;20410;55.578;12.968;2022-12-18T02:19:55;0.60;1.00
34135;DHT22;20410;55.578;12.968;2022-12-18T02:22:36;0.60;1.00
34135;DHT22;20410;55.578;12.968;2022-12-18T02:28:01;0.60;1.00
34135;DHT22;20410;55.578;12.968;2022-12-18T02:30:31;0.50;1.00
34135;DHT22;20410;55.578;12.968;2022-12-18T02:32:59;0.60;1.00
34135;DHT22;20410;55.578;12.968;2022-12-18T02:35:29;0.60;1.00
34135;DHT22;20410;55.578;12.968;2022-12-18T02:37:56;0.60;1.00
34135;DHT22;20410;55.578;12.968;2022-12-18T02:40:24;0.70;1.00
34135;DHT22;20410;55.578;12.968;2022-12-18T02:42:51;0.60;1.00
34135;DHT22;20410;55.578;12.968;2022-12-18T02:45:17;0.60;1.00
34135;DHT22;20410;55.578;12.968;2022-12-18T02:47:47;0.70;1.00
34135;DHT22;20410;55.578;12.968;2022-12-18T02:50:19;0.70;1.00
34135;DHT22;20410;55.578;12.968;2022-12-18T02:53:21;0.70;1.00
34135;DHT22;20410;55.578;12.968;2022-12-18T02:56:04;0.70;1.00
34135;DHT22;20410;55.578;12.968;2022-12-18T03:01:44;0.70;1.00
34135;DHT22;20410;55.578;12.968;2022-12-18T03:06:55;0.70;1.00
34135;DHT22;20410;55.578;12.968;2022-12-18T03:09:27;0.70;1.00
34135;DHT22;20410;55.578;12.968;2022-12-18T03:12:01;0.70;1.00
34135;DHT22;20410;55.578;12.968;2022-12-18T03:14:59;0.70;1.00
34135;DHT22;20410;55.578;12.968;2022-12-18T03:17:27;0.70;1.00
34135;DHT22;20410;55.578;12.968;2022-12-18T03:19:58;0.70;1.00
34135;DHT22;20410;55.578;12.968;2022-12-18T03:22:27;0.70;1.00
34135;DHT22;20410;55.578;12.968;2022-12-18T03:24:56;0.70;1.00
34135;DHT22;20410;55.578;12.968;2022-12-18T03:27:23;0.70;1.00
34135;DHT22;20410;55.578;12.968;2022-12-18T03:30:11;0.80;1.00
34135;DHT22;20410;55.578;12.968;2022-12-18T03:33:19;0.80;1.00
34135;DHT22;20410;55.578;12.968;2022-12-18T03:35:45;0.80;1.00
34135;DHT22;20410;55.578;12.968;2022-12-18T03:38:12;0.80;1.00
34135;DHT22;20410;55.578;12.968;2022-12-18T03:46:29;0.80;1.00
34135;DHT22;20410;55.578;12.968;2022-12-18T03:49:01;0.80;1.00
34135;DHT22;20410;55.578;12.968;2022-12-18T03:51:40;0.80;1.00
34135;DHT22;20410;55.578;12.968;2022-12-18T03:54:08;0.80;1.00
34135;DHT22;20410;55.578;12.968;2022-12-18T03:56:40;0.80;1.00
34135;DHT22;20410;55.578;12.968;2022-12-18T03:59:08;0.80;1.00
34135;DHT22;20410;55.578;12.968;2022-12-18T04:01:38;0.80;1.00
34135;DHT22;20410;55.578;12.968;2022-12-18T04:04:06;0.90;1.00
34135;DHT22;20410;55.578;12.968;2022-12-18T04:06:32;0.80;1.00
34135;DHT22;20410;55.578;12.968;2022-12-18T04:08:59;0.90;1.00
34135;DHT22;20410;55.578;12.968;2022-12-18T04:11:25;0.90;1.00
34135;DHT22;20410;55.578;12.968;2022-12-18T04:13:55;0.90;1.00
34135;DHT22;20410;55.578;12.968;2022-12-18T04:16:22;0.90;1.00
34135;DHT22;20410;55.578;12.968;2022-12-18T04:18:48;0.90;1.00
34135;DHT22;20410;55.578;12.968;2022-12-18T04:21:13;1.00;1.00
34135;DHT22;20410;55.578;12.968;2022-12-18T04:23:39;0.90;1.00
34135;DHT22;20410;55.578;12.968;2022-12-18T04:26:04;0.90;1.00
34135;DHT22;20410;55.578;12.968;2022-12-18T04:28:30;0.90;1.00
34135;DHT22;20410;55.578;12.968;2022-12-18T04:30:55;0.90;1.00
34135;DHT22;20410;55.578;12.968;2022-12-18T04:33:21;1.00;1.00
34135;DHT22;20410;55.578;12.968;2022-12-18T04:35:47;0.90;1.00
34135;DHT22;20410;55.578;12.968;2022-12-18T04:38:12;0.90;1.00
34135;DHT22;20410;55.578;12.968;2022-12-18T04:40:38;0.90;1.00
34135;DHT22;20410;55.578;12.968;2022-12-18T04:43:04;0.90;1.00
34135;DHT22;20410;55.578;12.968;2022-12-18T04:45:31;0.90;1.00
34135;DHT22;20410;55.578;12.968;2022-12-18T04:47:58;1.00;1.00
34135;DHT22;20410;55.578;12.968;2022-12-18T04:50:24;1.00;1.00
34135;DHT22;20410;55.578;12.968;2022-12-18T04:52:49;1.00;1.00
34135;DHT22;20410;55.578;12.968;2022-12-18T04:55:15;0.90;1.00
34135;DHT22;20410;55.578;12.968;2022-12-18T04:57:41;0.90;1.00
34135;DHT22;20410;55.578;12.968;2022-12-18T05:00:07;0.90;1.00
34135;DHT22;20410;55.578;12.968;2022-12-18T05:02:33;0.90;1.00
34135;DHT22;20410;55.578;12.968;2022-12-18T05:04:58;0.90;1.00
34135;DHT22;20410;55.578;12.968;2022-12-18T05:07:24;0.90;1.00
34135;DHT22;20410;55.578;12.968;2022-12-18T05:09:50;0.90;1.00
34135;DHT22;20410;55.578;12.968;2022-12-18T05:12:15;0.90;1.00
34135;DHT22;20410;55.578;12.968;2022-12-18T05:14:41;1.00;1.00
34135;DHT22;20410;55.578;12.968;2022-12-18T05:17:07;1.00;1.00
34135;DHT22;20410;55.578;12.968;2022-12-18T05:19:32;1.00;1.00
34135;DHT22;20410;55.578;12.968;2022-12-18T05:21:58;1.00;1.00
34135;DHT22;20410;55.578;12.968;2022-12-18T05:24:24;1.00;1.00
34135;DHT22;20410;55.578;12.968;2022-12-18T05:26:49;1.00;1.00
34135;DHT22;20410;55.578;12.968;2022-12-18T05:29:15;1.10;1.00
34135;DHT22;20410;55.578;12.968;2022-12-18T05:31:41;1.10;1.00
34135;DHT22;20410;55.578;12.968;2022-12-18T05:34:06;1.10;1.00
34135;DHT22;20410;55.578;12.968;2022-12-18T05:36:32;1.10;1.00
34135;DHT22;20410;55.578;12.968;2022-12-18T05:38:58;1.10;1.00
34135;DHT22;20410;55.578;12.968;2022-12-18T05:41:23;1.10;1.00
34135;DHT22;20410;55.578;12.968;2022-12-18T05:43:49;1.10;1.00
34135;DHT22;20410;55.578;12.968;2022-12-18T05:46:16;1.10;1.00
34135;DHT22;20410;55.578;12.968;2022-12-18T05:48:43;1.10;1.00
34135;DHT22;20410;55.578;12.968;2022-12-18T05:51:14;1.10;1.00
34135;DHT22;20410;55.578;12.968;2022-12-18T05:53:41;1.10;1.00
34135;DHT22;20410;55.578;12.968;2022-12-18T05:56:11;1.10;1.00
34135;DHT22;20410;55.578;12.968;2022-12-18T05:58:37;1.10;1.00
34135;DHT22;20410;55.578;12.968;2022-12-18T06:03:36;1.00;1.00
34135;DHT22;20410;55.578;12.968;2022-12-18T06:06:02;1.00;1.00
34135;DHT22;20410;55.578;12.968;2022-12-18T06:08:28;1.10;1.00
34135;DHT22;20410;55.578;12.968;2022-12-18T06:10:53;1.10;1.00
34135;DHT22;20410;55.578;12.968;2022-12-18T06:13:20;1.10;1.00
34135;DHT22;20410;55.578;12.968;2022-12-18T06:15:46;1.00;1.00
34135;DHT22;20410;55.578;12.968;2022-12-18T06:18:12;1.00;1.00
34135;DHT22;20410;55.578;12.968;2022-12-18T06:20:38;1.00;1.00
34135;DHT22;20410;55.578;12.968;2022-12-18T06:23:05;1.00;1.00
34135;DHT22;20410;55.578;12.968;2022-12-18T06:25:31;1.00;1.00
34135;DHT22;20410;55.578;12.968;2022-12-18T06:27:58;0.90;1.00
34135;DHT22;20410;55.578;12.968;2022-12-18T06:30:24;0.90;1.00
34135;DHT22;20410;55.578;12.968;2022-12-18T06:32:49;0.90;1.00
34135;DHT22;20410;55.578;12.968;2022-12-18T06:35:15;0.90;1.00
34135;DHT22;20410;55.578;12.968;2022-12-18T06:37:41;0.90;1.00
34135;DHT22;20410;55.578;12.968;2022-12-18T06:40:07;0.90;1.00
34135;DHT22;20410;55.578;12.968;2022-12-18T06:42:32;0.90;1.00
34135;DHT22;20410;55.578;12.968;2022-12-18T06:44:58;0.90;1.00
34135;DHT22;20410;55.578;12.968;2022-12-18T06:47:24;0.90;1.00
34135;DHT22;20410;55.578;12.968;2022-12-18T06:49:49;0.90;1.00
34135;DHT22;20410;55.578;12.968;2022-12-18T06:52:15;0.90;1.00
34135;DHT22;20410;55.578;12.968;2022-12-18T06:54:41;0.90;1.00
34135;DHT22;20410;55.578;12.968;2022-12-18T06:57:06;1.00;1.00
34135;DHT22;20410;55.578;12.968;2022-12-18T06:59:32;1.00;1.00
34135;DHT22;20410;55.578;12.968;2022-12-18T07:01:57;1.00;1.00
34135;DHT22;20410;55.578;12.968;2022-12-18T07:04:30;1.00;1.00
34135;DHT22;20410;55.578;12.968;2022-12-18T07:06:56;0.90;1.00
34135;DHT22;20410;55.578;12.968;2022-12-18T07:09:22;0.90;1.00
34135;DHT22;20410;55.578;12.968;2022-12-18T07:11:48;1.00;1.00
34135;DHT22;20410;55.578;12.968;2022-12-18T07:14:14;1.00;1.00
34135;DHT22;20410;55.578;12.968;2022-12-18T07:16:39;1.00;1.00
34135;DHT22;20410;55.578;12.968;2022-12-18T07:19:06;1.00;1.00
34135;DHT22;20410;55.578;12.968;2022-12-18T07:21:31;1.10;1.00
34135;DHT22;20410;55.578;12.968;2022-12-18T07:23:57;1.10;1.00
34135;DHT22;20410;55.578;12.968;2022-12-18T07:26:23;1.10;1.00
34135;DHT22;20410;55.578;12.968;2022-12-18T07:28:48;1.10;1.00
34135;DHT22;20410;55.578;12.968;2022-12-18T07:31:17;1.10;1.00
34135;DHT22;20410;55.578;12.968;2022-12-18T07:33:45;1.20;1.00
34135;DHT22;20410;55.578;12.968;2022-12-18T07:36:11;1.20;1.00
34135;DHT22;20410;55.578;12.968;2022-12-18T07:38:37;1.10;1.00
34135;DHT22;20410;55.578;12.968;2022-12-18T07:41:08;1.20;1.00
34135;DHT22;20410;55.578;12.968;2022-12-18T07:43:35;1.20;1.00
34135;DHT22;20410;55.578;12.968;2022-12-18T07:46:01;1.20;1.00
34135;DHT22;20410;55.578;12.968;2022-12-18T07:48:28;1.20;1.00
34135;DHT22;20410;55.578;12.968;2022-12-18T07:50:55;1.30;1.00
34135;DHT22;20410;55.578;12.968;2022-12-18T07:53:23;1.30;1.00
34135;DHT22;20410;55.578;12.968;2022-12-18T07:55:48;1.30;1.00
34135;DHT22;20410;55.578;12.968;2022-12-18T07:58:14;1.30;1.00
34135;DHT22;20410;55.578;12.968;2022-12-18T08:00:39;1.30;1.00
34135;DHT22;20410;55.578;12.968;2022-12-18T08:03:05;1.40;1.00
34135;DHT22;20410;55.578;12.968;2022-12-18T08:05:30;1.40;1.00
34135;DHT22;20410;55.578;12.968;2022-12-18T08:07:58;1.40;1.00
34135;DHT22;20410;55.578;12.968;2022-12-18T08:10:23;1.40;1.00
34135;DHT22;20410;55.578;12.968;2022-12-18T08:12:50;1.40;1.00
34135;DHT22;20410;55.578;12.968;2022-12-18T08:15:16;1.50;1.00
34135;DHT22;20410;55.578;12.968;2022-12-18T08:17:42;1.50;1.00
34135;DHT22;20410;55.578;12.968;2022-12-18T08:20:08;1.60;1.00
34135;DHT22;20410;55.578;12.968;2022-12-18T08:22:35;1.60;1.00
34135;DHT22;20410;55.578;12.968;2022-12-18T08:25:01;1.60;1.00
34135;DHT22;20410;55.578;12.968;2022-12-18T08:27:26;1.60;1.00
34135;DHT22;20410;55.578;12.968;2022-12-18T08:29:52;1.60;1.00
34135;DHT22;20410;55.578;12.968;2022-12-18T08:32:18;1.60;1.00
34135;DHT22;20410;55.578;12.968;2022-12-18T08:34:43;1.70;1.00
34135;DHT22;20410;55.578;12.968;2022-12-18T08:37:09;1.70;1.00
34135;DHT22;20410;55.578;12.968;2022-12-18T08:39:34;1.80;1.00
34135;DHT22;20410;55.578;12.968;2022-12-18T08:42:00;1.70;1.00
34135;DHT22;20410;55.578;12.968;2022-12-18T08:44:44;1.80;1.00
34135;DHT22;20410;55.578;12.968;2022-12-18T08:47:10;1.90;1.00
34135;DHT22;20410;55.578;12.968;2022-12-18T08:49:35;1.90;1.00
34135;DHT22;20410;55.578;12.968;2022-12-18T08:52:01;1.90;1.00
34135;DHT22;20410;55.578;12.968;2022-12-18T08:54:28;1.90;1.00
34135;DHT22;20410;55.578;12.968;2022-12-18T08:56:54;2.00;1.00
34135;DHT22;20410;55.578;12.968;2022-12-18T08:59:20;2.00;1.00
34135;DHT22;20410;55.578;12.968;2022-12-18T09:01:46;2.00;1.00
34135;DHT22;20410;55.578;12.968;2022-12-18T09:04:13;2.00;1.00
34135;DHT22;20410;55.578;12.968;2022-12-18T09:06:39;2.00;1.00
34135;DHT22;20410;55.578;12.968;2022-12-18T09:09:05;2.00;1.00
34135;DHT22;20410;55.578;12.968;2022-12-18T09:11:32;2.10;1.00
34135;DHT22;20410;55.578;12.968;2022-12-18T09:14:00;2.10;1.00
34135;DHT22;20410;55.578;12.968;2022-12-18T09:16:26;2.20;1.00
34135;DHT22;20410;55.578;12.968;2022-12-18T09:18:56;2.20;1.00
34135;DHT22;20410;55.578;12.968;2022-12-18T09:21:27;2.20;1.00
34135;DHT22;20410;55.578;12.968;2022-12-18T09:23:54;2.20;1.00
34135;DHT22;20410;55.578;12.968;2022-12-18T09:26:22;2.30;1.00
34135;DHT22;20410;55.578;12.968;2022-12-18T09:28:47;2.30;1.00
34135;DHT22;20410;55.578;12.968;2022-12-18T09:31:13;2.20;1.00
34135;DHT22;20410;55.578;12.968;2022-12-18T09:33:41;2.30;1.00
34135;DHT22;20410;55.578;12.968;2022-12-18T09:36:09;2.30;1.00
34135;DHT22;20410;55.578;12.968;2022-12-18T09:38:35;2.30;1.00
34135;DHT22;20410;55.578;12.968;2022-12-18T09:41:16;2.20;1.00
34135;DHT22;20410;55.578;12.968;2022-12-18T09:43:46;2.20;1.00
34135;DHT22;20410;55.578;12.968;2022-12-18T09:46:19;2.20;1.00
34135;DHT22;20410;55.578;12.968;2022-12-18T09:48:51;2.20;1.00
34135;DHT22;20410;55.578;12.968;2022-12-18T09:51:34;2.20;1.00
34135;DHT22;20410;55.578;12.968;2022-12-18T09:54:06;2.10;1.00
34135;DHT22;20410;55.578;12.968;2022-12-18T09:56:36;2.10;1.00
34135;DHT22;20410;55.578;12.968;2022-12-18T09:59:05;2.10;1.00
34135;DHT22;20410;55.578;12.968;2022-12-18T10:01:31;2.00;1.00
34135;DHT22;20410;55.578;12.968;2022-12-18T10:03:59;2.00;1.00
34135;DHT22;20410;55.578;12.968;2022-12-18T10:06:38;2.00;1.00
34135;DHT22;20410;55.578;12.968;2022-12-18T10:12:32;1.90;1.00
34135;DHT22;20410;55.578;12.968;2022-12-18T10:20:49;1.90;1.00
34135;DHT22;20410;55.578;12.968;2022-12-18T10:23:44;1.90;1.00
34135;DHT22;20410;55.578;12.968;2022-12-18T10:26:10;1.90;1.00
34135;DHT22;20410;55.578;12.968;2022-12-18T10:28:38;1.90;1.00
34135;DHT22;20410;55.578;12.968;2022-12-18T10:31:14;1.80;1.00
34135;DHT22;20410;55.578;12.968;2022-12-18T10:33:42;1.80;1.00
34135;DHT22;20410;55.578;12.968;2022-12-18T10:36:08;1.80;1.00
34135;DHT22;20410;55.578;12.968;2022-12-18T10:38:34;1.70;1.00
34135;DHT22;20410;55.578;12.968;2022-12-18T10:41:05;1.60;1.00
34135;DHT22;20410;55.578;12.968;2022-12-18T10:43:37;1.60;1.00
34135;DHT22;20410;55.578;12.968;2022-12-18T10:51:07;1.40;1.00
34135;DHT22;20410;55.578;12.968;2022-12-18T10:53:35;1.40;1.00
34135;DHT22;20410;55.578;12.968;2022-12-18T10:56:04;1.50;1.00
34135;DHT22;20410;55.578;12.968;2022-12-18T10:58:33;1.50;1.00
34135;DHT22;20410;55.578;12.968;2022-12-18T11:06:11;1.60;1.00
34135;DHT22;20410;55.578;12.968;2022-12-18T11:08:38;1.60;1.00
34135;DHT22;20410;55.578;12.968;2022-12-18T11:11:14;1.70;1.00
34135;DHT22;20410;55.578;12.968;2022-12-18T11:13:41;1.70;1.00
34135;DHT22;20410;55.578;12.968;2022-12-18T11:16:19;1.70;1.00
34135;DHT22;20410;55.578;12.968;2022-12-18T11:18:45;1.70;1.00
34135;DHT22;20410;55.578;12.968;2022-12-18T11:21:12;1.60;1.00
34135;DHT22;20410;55.578;12.968;2022-12-18T11:26:12;1.60;1.00
34135;DHT22;20410;55.578;12.968;2022-12-18T11:31:27;1.70;1.00
34135;DHT22;20410;55.578;12.968;2022-12-18T11:34:12;1.70;1.00
34135;DHT22;20410;55.578;12.968;2022-12-18T11:36:45;1.70;1.00
34135;DHT22;20410;55.578;12.968;2022-12-18T11:40:15;1.70;1.00
34135;DHT22;20410;55.578;12.968;2022-12-18T11:42:20;1.70;1.00
34135;DHT22;20410;55.578;12.968;2022-12-18T11:47:47;1.70;1.00
34135;DHT22;20410;55.578;12.968;2022-12-18T11:50:28;1.70;1.00
34135;DHT22;20410;55.578;12.968;2022-12-18T11:52:55;1.70;1.00
34135;DHT22;20410;55.578;12.968;2022-12-18T12:01:13;1.70;1.00
34135;DHT22;20410;55.578;12.968;2022-12-18T12:12:23;1.80;1.00
34135;DHT22;20410;55.578;12.968;2022-12-18T12:14:55;1.70;1.00
34135;DHT22;20410;55.578;12.968;2022-12-18T12:26:05;1.80;1.00
34135;DHT22;20410;55.578;12.968;2022-12-18T12:34:23;1.80;1.00
34135;DHT22;20410;55.578;12.968;2022-12-18T12:39:52;1.80;1.00
34135;DHT22;20410;55.578;12.968;2022-12-18T12:42:38;1.80;1.00
34135;DHT22;20410;55.578;12.968;2022-12-18T12:45:54;1.80;1.00
34135;DHT22;20410;55.578;12.968;2022-12-18T12:48:43;1.80;1.00
34135;DHT22;20410;55.578;12.968;2022-12-18T12:51:19;1.80;1.00
34135;DHT22;20410;55.578;12.968;2022-12-18T12:53:46;1.70;1.00
34135;DHT22;20410;55.578;12.968;2022-12-18T12:56:15;1.70;1.00
34135;DHT22;20410;55.578;12.968;2022-12-18T13:04:26;1.70;1.00
34135;DHT22;20410;55.578;12.968;2022-12-18T13:07:20;1.60;1.00
34135;DHT22;20410;55.578;12.968;2022-12-18T13:13:16;1.60;1.00
34135;DHT22;20410;55.578;12.968;2022-12-18T13:15:47;1.50;1.00
34135;DHT22;20410;55.578;12.968;2022-12-18T13:18:20;1.50;1.00
34135;DHT22;20410;55.578;12.968;2022-12-18T13:23:28;1.50;1.00
34135;DHT22;20410;55.578;12.968;2022-12-18T13:34:20;1.40;1.00
34135;DHT22;20410;55.578;12.968;2022-12-18T13:36:47;1.50;1.00
34135;DHT22;20410;55.578;12.968;2022-12-18T13:46:59;1.40;1.00
34135;DHT22;20410;55.578;12.968;2022-12-18T13:49:41;1.40;1.00
34135;DHT22;20410;55.578;12.968;2022-12-18T13:52:28;1.40;1.00
34135;DHT22;20410;55.578;12.968;2022-12-18T13:54:56;1.40;1.00
34135;DHT22;20410;55.578;12.968;2022-12-18T13:57:34;1.40;1.00
34135;DHT22;20410;55.578;12.968;2022-12-18T14:02:47;1.50;1.00
34135;DHT22;20410;55.578;12.968;2022-12-18T14:08:00;1.40;1.00
34135;DHT22;20410;55.578;12.968;2022-12-18T14:10:27;1.50;1.00
34135;DHT22;20410;55.578;12.968;2022-12-18T14:12:53;1.40;1.00
34135;DHT22;20410;55.578;12.968;2022-12-18T14:15:39;1.50;1.00
34135;DHT22;20410;55.578;12.968;2022-12-18T14:20:45;1.40;1.00
34135;DHT22;20410;55.578;12.968;2022-12-18T14:23:32;1.40;1.00
34135;DHT22;20410;55.578;12.968;2022-12-18T14:25:59;1.40;1.00
34135;DHT22;20410;55.578;12.968;2022-12-18T14:28:24;1.40;1.00
34135;DHT22;20410;55.578;12.968;2022-12-18T14:30:52;1.40;1.00
34135;DHT22;20410;55.578;12.968;2022-12-18T14:33:26;1.40;1.00
34135;DHT22;20410;55.578;12.968;2022-12-18T14:36:04;1.40;1.00
34135;DHT22;20410;55.578;12.968;2022-12-18T14:41:06;1.30;1.00
34135;DHT22;20410;55.578;12.968;2022-12-18T14:43:34;1.20;1.00
34135;DHT22;20410;55.578;12.968;2022-12-18T14:46:01;1.20;1.00
34135;DHT22;20410;55.578;12.968;2022-12-18T14:53:40;1.10;1.00
34135;DHT22;20410;55.578;12.968;2022-12-18T14:58:47;1.10;1.00
34135;DHT22;20410;55.578;12.968;2022-12-18T15:01:22;1.10;1.00
34135;DHT22;20410;55.578;12.968;2022-12-18T15:03:50;1.10;1.00
34135;DHT22;20410;55.578;12.968;2022-12-18T15:06:25;1.10;1.00
34135;DHT22;20410;55.578;12.968;2022-12-18T15:08:52;1.00;1.00
34135;DHT22;20410;55.578;12.968;2022-12-18T15:11:35;1.00;1.00
34135;DHT22;20410;55.578;12.968;2022-12-18T15:14:21;1.00;1.00
34135;DHT22;20410;55.578;12.968;2022-12-18T15:16:52;1.10;1.00
34135;DHT22;20410;55.578;12.968;2022-12-18T15:19:19;1.10;1.00
34135;DHT22;20410;55.578;12.968;2022-12-18T15:21:45;1.00;1.00
34135;DHT22;20410;55.578;12.968;2022-12-18T15:24:18;1.00;1.00
34135;DHT22;20410;55.578;12.968;2022-12-18T15:26:46;1.00;1.00
34135;DHT22;20410;55.578;12.968;2022-12-18T15:29:21;1.00;1.00
34135;DHT22;20410;55.578;12.968;2022-12-18T15:32:04;1.00;1.00
34135;DHT22;20410;55.578;12.968;2022-12-18T15:34:32;1.00;1.00
34135;DHT22;20410;55.578;12.968;2022-12-18T15:36:59;1.00;1.00
34135;DHT22;20410;55.578;12.968;2022-12-18T15:39:25;0.90;1.00
34135;DHT22;20410;55.578;12.968;2022-12-18T15:41:51;0.90;1.00
34135;DHT22;20410;55.578;12.968;2022-12-18T15:44:35;0.90;1.00
34135;DHT22;20410;55.578;12.968;2022-12-18T15:47:01;0.80;1.00
34135;DHT22;20410;55.578;12.968;2022-12-18T15:49:27;0.80;1.00
34135;DHT22;20410;55.578;12.968;2022-12-18T15:51:56;0.80;1.00
34135;DHT22;20410;55.578;12.968;2022-12-18T15:54:22;0.70;1.00
34135;DHT22;20410;55.578;12.968;2022-12-18T15:57:11;0.70;1.00
34135;DHT22;20410;55.578;12.968;2022-12-18T15:59:54;0.60;1.00
34135;DHT22;20410;55.578;12.968;2022-12-18T16:02:22;0.60;1.00
34135;DHT22;20410;55.578;12.968;2022-12-18T16:04:49;0.60;1.00
34135;DHT22;20410;55.578;12.968;2022-12-18T16:07:14;0.60;1.00
34135;DHT22;20410;55.578;12.968;2022-12-18T16:09:40;0.60;1.00
34135;DHT22;20410;55.578;12.968;2022-12-18T16:12:24;0.60;1.00
34135;DHT22;20410;55.578;12.968;2022-12-18T16:14:50;0.60;1.00
34135;DHT22;20410;55.578;12.968;2022-12-18T16:17:16;0.60;1.00
34135;DHT22;20410;55.578;12.968;2022-12-18T16:19:42;0.60;1.00
34135;DHT22;20410;55.578;12.968;2022-12-18T16:22:19;0.60;1.00
34135;DHT22;20410;55.578;12.968;2022-12-18T16:24:46;0.60;1.00
34135;DHT22;20410;55.578;12.968;2022-12-18T16:27:11;0.60;1.00
34135;DHT22;20410;55.578;12.968;2022-12-18T16:29:37;0.60;1.00
34135;DHT22;20410;55.578;12.968;2022-12-18T16:32:03;0.70;1.00
34135;DHT22;20410;55.578;12.968;2022-12-18T16:34:31;0.70;1.00
34135;DHT22;20410;55.578;12.968;2022-12-18T16:36:59;0.60;1.00
34135;DHT22;20410;55.578;12.968;2022-12-18T16:39:25;0.60;1.00
34135;DHT22;20410;55.578;12.968;2022-12-18T16:41:51;0.60;1.00
34135;DHT22;20410;55.578;12.968;2022-12-18T16:44:17;0.50;1.00
34135;DHT22;20410;55.578;12.968;2022-12-18T16:46:43;0.50;1.00
34135;DHT22;20410;55.578;12.968;2022-12-18T16:49:11;0.50;1.00
34135;DHT22;20410;55.578;12.968;2022-12-18T16:51:37;0.50;1.00
34135;DHT22;20410;55.578;12.968;2022-12-18T16:54:03;0.50;1.00
34135;DHT22;20410;55.578;12.968;2022-12-18T16:56:29;0.40;1.00
34135;DHT22;20410;55.578;12.968;2022-12-18T16:58:57;0.30;1.00
34135;DHT22;20410;55.578;12.968;2022-12-18T17:01:24;0.30;1.00
34135;DHT22;20410;55.578;12.968;2022-12-18T17:03:51;0.20;1.00
34135;DHT22;20410;55.578;12.968;2022-12-18T17:06:18;0.20;1.00
34135;DHT22;20410;55.578;12.968;2022-12-18T17:08:43;0.20;1.00
34135;DHT22;20410;55.578;12.968;2022-12-18T17:11:09;0.20;1.00
34135;DHT22;20410;55.578;12.968;2022-12-18T17:13:35;0.20;1.00
34135;DHT22;20410;55.578;12.968;2022-12-18T17:16:05;0.20;1.00
34135;DHT22;20410;55.578;12.968;2022-12-18T17:18:32;0.20;1.00
34135;DHT22;20410;55.578;12.968;2022-12-18T17:21:01;0.20;1.00
34135;DHT22;20410;55.578;12.968;2022-12-18T17:23:28;0.20;1.00
34135;DHT22;20410;55.578;12.968;2022-12-18T17:25:58;0.20;1.00
34135;DHT22;20410;55.578;12.968;2022-12-18T17:28:25;0.20;1.00
34135;DHT22;20410;55.578;12.968;2022-12-18T17:30:52;0.20;1.00
34135;DHT22;20410;55.578;12.968;2022-12-18T17:33:18;0.30;1.00
34135;DHT22;20410;55.578;12.968;2022-12-18T17:35:44;0.30;1.00
34135;DHT22;20410;55.578;12.968;2022-12-18T17:38:10;0.30;1.00
34135;DHT22;20410;55.578;12.968;2022-12-18T17:40:35;0.30;1.00
34135;DHT22;20410;55.578;12.968;2022-12-18T17:43:01;0.40;1.00
34135;DHT22;20410;55.578;12.968;2022-12-18T17:45:27;0.40;1.00
34135;DHT22;20410;55.578;12.968;2022-12-18T17:47:53;0.40;1.00
34135;DHT22;20410;55.578;12.968;2022-12-18T17:50:18;0.40;1.00
34135;DHT22;20410;55.578;12.968;2022-12-18T17:52:44;0.40;1.00
34135;DHT22;20410;55.578;12.968;2022-12-18T17:55:10;0.40;1.00
34135;DHT22;20410;55.578;12.968;2022-12-18T17:57:36;0.40;1.00
34135;DHT22;20410;55.578;12.968;2022-12-18T18:00:03;0.40;1.00
34135;DHT22;20410;55.578;12.968;2022-12-18T18:02:29;0.40;1.00